sensor_id;sensor_type;location;lat;lon;timestamp;P1;durP1;ratioP1;P2;durP2;ratioP2
71777;SDS011;59609;52.430;4.668;2024-02-21T00:00:23;20.05;;;2.25;;
71777;SDS011;59609;52.430;4.668;2024-02-21T00:02:48;18.27;;;3.03;;
71777;SDS011;59609;52.430;4.668;2024-02-21T00:05:14;15.40;;;1.90;;
71777;SDS011;59609;52.430;4.668;2024-02-21T00:07:39;11.60;;;2.50;;
71777;SDS011;59609;52.430;4.668;2024-02-21T00:10:04;16.93;;;3.30;;
71777;SDS011;59609;52.430;4.668;2024-02-21T00:12:30;13.50;;;2.17;;
71777;SDS011;59609;52.430;4.668;2024-02-21T00:14:55;22.08;;;3.22;;
71777;SDS011;59609;52.430;4.668;2024-02-21T00:17:20;14.83;;;2.30;;
71777;SDS011;59609;52.430;4.668;2024-02-21T00:19:46;15.23;;;2.00;;
71777;SDS011;59609;52.430;4.668;2024-02-21T00:22:11;29.37;;;3.30;;
71777;SDS011;59609;52.430;4.668;2024-02-21T00:24:36;21.75;;;2.53;;
71777;SDS011;59609;52.430;4.668;2024-02-21T00:27:01;15.63;;;2.20;;
71777;SDS011;59609;52.430;4.668;2024-02-21T00:29:27;28.50;;;3.03;;
71777;SDS011;59609;52.430;4.668;2024-02-21T00:31:52;13.30;;;2.55;;
71777;SDS011;59609;52.430;4.668;2024-02-21T00:34:17;27.15;;;2.72;;
71777;SDS011;59609;52.430;4.668;2024-02-21T00:36:43;11.50;;;2.40;;
71777;SDS011;59609;52.430;4.668;2024-02-21T00:39:08;13.87;;;2.33;;
71777;SDS011;59609;52.430;4.668;2024-02-21T00:41:33;23.38;;;2.67;;
71777;SDS011;59609;52.430;4.668;2024-02-21T00:43:58;16.23;;;2.20;;
71777;SDS011;59609;52.430;4.668;2024-02-21T00:46:24;16.17;;;2.57;;
71777;SDS011;59609;52.430;4.668;2024-02-21T00:48:49;22.17;;;2.73;;
71777;SDS011;59609;52.430;4.668;2024-02-21T00:51:15;21.48;;;2.88;;
71777;SDS011;59609;52.430;4.668;2024-02-21T00:53:41;21.58;;;2.95;;
71777;SDS011;59609;52.430;4.668;2024-02-21T00:56:06;16.13;;;3.17;;
71777;SDS011;59609;52.430;4.668;2024-02-21T00:58:32;19.17;;;2.73;;
71777;SDS011;59609;52.430;4.668;2024-02-21T01:00:57;18.07;;;2.73;;
71777;SDS011;59609;52.430;4.668;2024-02-21T01:03:22;19.17;;;3.13;;
71777;SDS011;59609;52.430;4.668;2024-02-21T01:05:47;16.07;;;3.33;;
71777;SDS011;59609;52.430;4.668;2024-02-21T01:08:13;17.93;;;3.83;;
71777;SDS011;59609;52.430;4.668;2024-02-21T01:10:38;20.70;;;3.50;;
71777;SDS011;59609;52.430;4.668;2024-02-21T01:13:03;15.37;;;3.07;;
71777;SDS011;59609;52.430;4.668;2024-02-21T01:15:28;18.63;;;3.73;;
71777;SDS011;59609;52.430;4.668;2024-02-21T01:17:54;19.47;;;2.63;;
71777;SDS011;59609;52.430;4.668;2024-02-21T01:20:22;20.45;;;3.75;;
71777;SDS011;59609;52.430;4.668;2024-02-21T01:22:48;24.20;;;2.83;;
71777;SDS011;59609;52.430;4.668;2024-02-21T01:25:13;25.07;;;2.57;;
71777;SDS011;59609;52.430;4.668;2024-02-21T01:27:38;20.40;;;2.50;;
71777;SDS011;59609;52.430;4.668;2024-02-21T01:30:04;17.67;;;2.83;;
71777;SDS011;59609;52.430;4.668;2024-02-21T01:32:30;19.02;;;3.60;;
71777;SDS011;59609;52.430;4.668;2024-02-21T01:34:56;25.85;;;2.80;;
71777;SDS011;59609;52.430;4.668;2024-02-21T01:37:21;15.27;;;2.80;;
71777;SDS011;59609;52.430;4.668;2024-02-21T01:39:46;26.75;;;3.30;;
71777;SDS011;59609;52.430;4.668;2024-02-21T01:42:11;26.10;;;2.80;;
71777;SDS011;59609;52.430;4.668;2024-02-21T01:44:37;24.20;;;2.83;;
71777;SDS011;59609;52.430;4.668;2024-02-21T01:47:03;20.83;;;3.42;;
71777;SDS011;59609;52.430;4.668;2024-02-21T01:49:28;19.98;;;2.58;;
71777;SDS011;59609;52.430;4.668;2024-02-21T01:51:53;19.25;;;2.58;;
71777;SDS011;59609;52.430;4.668;2024-02-21T01:54:19;16.10;;;2.20;;
71777;SDS011;59609;52.430;4.668;2024-02-21T01:56:44;25.17;;;3.65;;
71777;SDS011;59609;52.430;4.668;2024-02-21T01:59:11;20.35;;;2.83;;
71777;SDS011;59609;52.430;4.668;2024-02-21T02:01:36;21.50;;;3.28;;
71777;SDS011;59609;52.430;4.668;2024-02-21T02:04:02;22.20;;;3.90;;
71777;SDS011;59609;52.430;4.668;2024-02-21T02:06:30;21.75;;;3.08;;
71777;SDS011;59609;52.430;4.668;2024-02-21T02:08:55;18.35;;;2.58;;
71777;SDS011;59609;52.430;4.668;2024-02-21T02:11:21;18.25;;;3.05;;
71777;SDS011;59609;52.430;4.668;2024-02-21T02:13:46;19.73;;;3.37;;
71777;SDS011;59609;52.430;4.668;2024-02-21T02:16:12;20.97;;;2.83;;
71777;SDS011;59609;52.430;4.668;2024-02-21T02:18:37;21.40;;;2.83;;
71777;SDS011;59609;52.430;4.668;2024-02-21T02:21:04;16.17;;;3.23;;
71777;SDS011;59609;52.430;4.668;2024-02-21T02:23:30;20.20;;;2.65;;
71777;SDS011;59609;52.430;4.668;2024-02-21T02:25:56;17.42;;;3.70;;
71777;SDS011;59609;52.430;4.668;2024-02-21T02:28:21;19.73;;;2.78;;
71777;SDS011;59609;52.430;4.668;2024-02-21T02:30:47;23.77;;;3.73;;
71777;SDS011;59609;52.430;4.668;2024-02-21T02:33:12;18.90;;;2.47;;
71777;SDS011;59609;52.430;4.668;2024-02-21T02:35:38;22.80;;;3.00;;
71777;SDS011;59609;52.430;4.668;2024-02-21T02:38:03;20.50;;;3.07;;
71777;SDS011;59609;52.430;4.668;2024-02-21T02:40:28;27.13;;;2.75;;
71777;SDS011;59609;52.430;4.668;2024-02-21T02:42:54;20.83;;;2.75;;
71777;SDS011;59609;52.430;4.668;2024-02-21T02:45:22;19.75;;;3.45;;
71777;SDS011;59609;52.430;4.668;2024-02-21T02:47:49;19.45;;;2.67;;
71777;SDS011;59609;52.430;4.668;2024-02-21T02:50:14;20.85;;;2.90;;
71777;SDS011;59609;52.430;4.668;2024-02-21T02:52:40;20.42;;;2.70;;
71777;SDS011;59609;52.430;4.668;2024-02-21T02:55:06;24.27;;;3.23;;
71777;SDS011;59609;52.430;4.668;2024-02-21T02:57:31;20.80;;;2.72;;
71777;SDS011;59609;52.430;4.668;2024-02-21T02:59:56;15.45;;;2.90;;
71777;SDS011;59609;52.430;4.668;2024-02-21T03:02:22;29.73;;;2.50;;
71777;SDS011;59609;52.430;4.668;2024-02-21T03:04:47;26.63;;;2.60;;
71777;SDS011;59609;52.430;4.668;2024-02-21T03:07:13;21.58;;;2.75;;
71777;SDS011;59609;52.430;4.668;2024-02-21T03:09:38;26.38;;;3.20;;
71777;SDS011;59609;52.430;4.668;2024-02-21T03:12:05;22.33;;;3.10;;
71777;SDS011;59609;52.430;4.668;2024-02-21T03:14:31;26.60;;;2.50;;
71777;SDS011;59609;52.430;4.668;2024-02-21T03:16:57;31.67;;;3.53;;
71777;SDS011;59609;52.430;4.668;2024-02-21T03:19:23;15.60;;;2.20;;
71777;SDS011;59609;52.430;4.668;2024-02-21T03:21:51;21.63;;;2.30;;
71777;SDS011;59609;52.430;4.668;2024-02-21T03:26:41;13.80;;;2.08;;
71777;SDS011;59609;52.430;4.668;2024-02-21T03:29:07;21.27;;;3.40;;
71777;SDS011;59609;52.430;4.668;2024-02-21T03:31:32;19.73;;;2.90;;
71777;SDS011;59609;52.430;4.668;2024-02-21T03:33:58;18.63;;;2.37;;
71777;SDS011;59609;52.430;4.668;2024-02-21T03:36:23;17.17;;;2.37;;
71777;SDS011;59609;52.430;4.668;2024-02-21T03:38:48;14.23;;;1.93;;
71777;SDS011;59609;52.430;4.668;2024-02-21T03:41:13;20.20;;;2.83;;
71777;SDS011;59609;52.430;4.668;2024-02-21T03:43:39;19.07;;;2.33;;
71777;SDS011;59609;52.430;4.668;2024-02-21T03:46:04;26.27;;;3.13;;
71777;SDS011;59609;52.430;4.668;2024-02-21T03:48:29;23.05;;;2.88;;
71777;SDS011;59609;52.430;4.668;2024-02-21T03:50:55;15.97;;;2.53;;
71777;SDS011;59609;52.430;4.668;2024-02-21T03:53:20;15.70;;;2.27;;
71777;SDS011;59609;52.430;4.668;2024-02-21T03:55:45;19.03;;;2.83;;
71777;SDS011;59609;52.430;4.668;2024-02-21T03:58:10;25.55;;;3.22;;
71777;SDS011;59609;52.430;4.668;2024-02-21T04:00:35;14.43;;;2.73;;
71777;SDS011;59609;52.430;4.668;2024-02-21T04:03:01;23.77;;;3.20;;
71777;SDS011;59609;52.430;4.668;2024-02-21T04:05:26;22.70;;;3.00;;
71777;SDS011;59609;52.430;4.668;2024-02-21T04:07:51;18.60;;;3.00;;
71777;SDS011;59609;52.430;4.668;2024-02-21T04:10:17;14.68;;;2.30;;
71777;SDS011;59609;52.430;4.668;2024-02-21T04:12:42;23.03;;;3.00;;
71777;SDS011;59609;52.430;4.668;2024-02-21T04:15:07;21.37;;;3.13;;
71777;SDS011;59609;52.430;4.668;2024-02-21T04:17:33;18.15;;;2.53;;
71777;SDS011;59609;52.430;4.668;2024-02-21T04:20:02;14.67;;;2.77;;
71777;SDS011;59609;52.430;4.668;2024-02-21T04:22:30;21.70;;;3.95;;
71777;SDS011;59609;52.430;4.668;2024-02-21T04:24:55;16.13;;;2.90;;
71777;SDS011;59609;52.430;4.668;2024-02-21T04:27:20;17.50;;;2.13;;
71777;SDS011;59609;52.430;4.668;2024-02-21T04:29:45;14.27;;;2.50;;
71777;SDS011;59609;52.430;4.668;2024-02-21T04:32:11;15.43;;;2.40;;
71777;SDS011;59609;52.430;4.668;2024-02-21T04:34:36;9.25;;;2.70;;
71777;SDS011;59609;52.430;4.668;2024-02-21T04:37:01;11.80;;;2.53;;
71777;SDS011;59609;52.430;4.668;2024-02-21T04:39:26;13.65;;;2.22;;
71777;SDS011;59609;52.430;4.668;2024-02-21T04:41:52;15.93;;;3.03;;
71777;SDS011;59609;52.430;4.668;2024-02-21T04:44:17;11.33;;;2.60;;
71777;SDS011;59609;52.430;4.668;2024-02-21T04:46:42;13.95;;;2.55;;
71777;SDS011;59609;52.430;4.668;2024-02-21T04:49:08;11.43;;;2.17;;
71777;SDS011;59609;52.430;4.668;2024-02-21T04:51:33;18.67;;;3.30;;
71777;SDS011;59609;52.430;4.668;2024-02-21T04:53:58;9.03;;;2.43;;
71777;SDS011;59609;52.430;4.668;2024-02-21T04:56:23;18.73;;;3.00;;
71777;SDS011;59609;52.430;4.668;2024-02-21T04:58:49;14.57;;;2.03;;
71777;SDS011;59609;52.430;4.668;2024-02-21T05:01:15;9.53;;;1.80;;
71777;SDS011;59609;52.430;4.668;2024-02-21T05:03:40;16.37;;;2.63;;
71777;SDS011;59609;52.430;4.668;2024-02-21T05:06:05;17.20;;;3.03;;
71777;SDS011;59609;52.430;4.668;2024-02-21T05:08:30;17.47;;;2.47;;
71777;SDS011;59609;52.430;4.668;2024-02-21T05:10:55;16.03;;;2.50;;
71777;SDS011;59609;52.430;4.668;2024-02-21T05:13:21;15.03;;;2.60;;
71777;SDS011;59609;52.430;4.668;2024-02-21T05:15:46;14.67;;;2.43;;
71777;SDS011;59609;52.430;4.668;2024-02-21T05:18:11;16.23;;;2.27;;
71777;SDS011;59609;52.430;4.668;2024-02-21T05:20:36;15.80;;;2.90;;
71777;SDS011;59609;52.430;4.668;2024-02-21T05:23:02;14.20;;;2.47;;
71777;SDS011;59609;52.430;4.668;2024-02-21T05:25:27;9.88;;;1.95;;
71777;SDS011;59609;52.430;4.668;2024-02-21T05:27:52;16.87;;;3.80;;
71777;SDS011;59609;52.430;4.668;2024-02-21T05:30:18;12.15;;;2.70;;
71777;SDS011;59609;52.430;4.668;2024-02-21T05:32:44;14.27;;;3.07;;
71777;SDS011;59609;52.430;4.668;2024-02-21T05:35:09;11.80;;;2.03;;
71777;SDS011;59609;52.430;4.668;2024-02-21T05:37:34;17.45;;;2.67;;
71777;SDS011;59609;52.430;4.668;2024-02-21T05:39:59;17.43;;;2.87;;
71777;SDS011;59609;52.430;4.668;2024-02-21T05:42:25;12.95;;;2.65;;
71777;SDS011;59609;52.430;4.668;2024-02-21T05:44:50;13.48;;;2.55;;
71777;SDS011;59609;52.430;4.668;2024-02-21T05:47:15;11.67;;;2.00;;
71777;SDS011;59609;52.430;4.668;2024-02-21T05:49:40;17.53;;;2.20;;
71777;SDS011;59609;52.430;4.668;2024-02-21T05:52:06;17.93;;;4.37;;
71777;SDS011;59609;52.430;4.668;2024-02-21T05:54:31;12.38;;;3.20;;
71777;SDS011;59609;52.430;4.668;2024-02-21T05:56:56;11.80;;;2.40;;
71777;SDS011;59609;52.430;4.668;2024-02-21T05:59:22;11.98;;;2.80;;
71777;SDS011;59609;52.430;4.668;2024-02-21T06:01:54;9.82;;;3.20;;
71777;SDS011;59609;52.430;4.668;2024-02-21T06:04:21;11.13;;;2.58;;
71777;SDS011;59609;52.430;4.668;2024-02-21T06:06:46;14.82;;;3.22;;
71777;SDS011;59609;52.430;4.668;2024-02-21T06:09:11;18.20;;;4.10;;
71777;SDS011;59609;52.430;4.668;2024-02-21T06:11:36;10.27;;;2.57;;
71777;SDS011;59609;52.430;4.668;2024-02-21T06:14:02;13.15;;;2.67;;
71777;SDS011;59609;52.430;4.668;2024-02-21T06:16:28;15.97;;;3.30;;
71777;SDS011;59609;52.430;4.668;2024-02-21T06:18:53;15.60;;;3.00;;
71777;SDS011;59609;52.430;4.668;2024-02-21T06:21:18;13.05;;;2.83;;
71777;SDS011;59609;52.430;4.668;2024-02-21T06:23:43;15.38;;;2.38;;
71777;SDS011;59609;52.430;4.668;2024-02-21T06:26:09;7.53;;;2.30;;
71777;SDS011;59609;52.430;4.668;2024-02-21T06:28:34;21.75;;;3.75;;
71777;SDS011;59609;52.430;4.668;2024-02-21T06:31:00;16.37;;;3.70;;
71777;SDS011;59609;52.430;4.668;2024-02-21T06:33:25;13.43;;;3.93;;
71777;SDS011;59609;52.430;4.668;2024-02-21T06:35:50;10.60;;;2.97;;
71777;SDS011;59609;52.430;4.668;2024-02-21T06:38:18;9.90;;;2.63;;
71777;SDS011;59609;52.430;4.668;2024-02-21T06:40:43;5.88;;;2.65;;
71777;SDS011;59609;52.430;4.668;2024-02-21T06:43:14;15.68;;;4.03;;
71777;SDS011;59609;52.430;4.668;2024-02-21T06:45:39;14.30;;;2.70;;
71777;SDS011;59609;52.430;4.668;2024-02-21T06:48:04;8.87;;;2.93;;
71777;SDS011;59609;52.430;4.668;2024-02-21T06:50:29;7.45;;;3.25;;
71777;SDS011;59609;52.430;4.668;2024-02-21T06:52:55;12.23;;;3.47;;
71777;SDS011;59609;52.430;4.668;2024-02-21T06:55:20;13.50;;;3.60;;
71777;SDS011;59609;52.430;4.668;2024-02-21T06:57:45;16.27;;;3.47;;
71777;SDS011;59609;52.430;4.668;2024-02-21T07:00:11;12.32;;;3.40;;
71777;SDS011;59609;52.430;4.668;2024-02-21T07:02:36;12.07;;;3.28;;
71777;SDS011;59609;52.430;4.668;2024-02-21T07:05:01;13.77;;;3.70;;
71777;SDS011;59609;52.430;4.668;2024-02-21T07:07:27;11.18;;;3.85;;
71777;SDS011;59609;52.430;4.668;2024-02-21T07:09:52;14.30;;;4.53;;
71777;SDS011;59609;52.430;4.668;2024-02-21T07:12:18;14.93;;;4.53;;
71777;SDS011;59609;52.430;4.668;2024-02-21T07:14:44;11.40;;;4.00;;
71777;SDS011;59609;52.430;4.668;2024-02-21T07:17:09;14.52;;;4.63;;
71777;SDS011;59609;52.430;4.668;2024-02-21T07:19:35;15.30;;;5.20;;
71777;SDS011;59609;52.430;4.668;2024-02-21T07:22:00;9.27;;;3.63;;
71777;SDS011;59609;52.430;4.668;2024-02-21T07:24:25;14.10;;;5.15;;
71777;SDS011;59609;52.430;4.668;2024-02-21T07:26:51;10.73;;;5.00;;
71777;SDS011;59609;52.430;4.668;2024-02-21T07:29:16;12.07;;;4.68;;
71777;SDS011;59609;52.430;4.668;2024-02-21T07:31:44;11.97;;;4.80;;
71777;SDS011;59609;52.430;4.668;2024-02-21T07:34:10;13.73;;;5.95;;
71777;SDS011;59609;52.430;4.668;2024-02-21T07:36:35;16.85;;;5.75;;
71777;SDS011;59609;52.430;4.668;2024-02-21T07:39:02;9.85;;;4.75;;
71777;SDS011;59609;52.430;4.668;2024-02-21T07:41:28;15.13;;;5.82;;
71777;SDS011;59609;52.430;4.668;2024-02-21T07:43:55;12.93;;;5.63;;
71777;SDS011;59609;52.430;4.668;2024-02-21T07:46:20;12.30;;;5.70;;
71777;SDS011;59609;52.430;4.668;2024-02-21T07:48:45;12.47;;;5.63;;
71777;SDS011;59609;52.430;4.668;2024-02-21T07:51:11;15.10;;;5.28;;
71777;SDS011;59609;52.430;4.668;2024-02-21T07:53:38;10.13;;;5.20;;
71777;SDS011;59609;52.430;4.668;2024-02-21T07:56:04;13.35;;;5.60;;
71777;SDS011;59609;52.430;4.668;2024-02-21T07:58:29;13.73;;;5.78;;
71777;SDS011;59609;52.430;4.668;2024-02-21T08:00:54;13.77;;;6.37;;
71777;SDS011;59609;52.430;4.668;2024-02-21T08:03:19;15.40;;;6.90;;
71777;SDS011;59609;52.430;4.668;2024-02-21T08:05:45;12.43;;;6.32;;
71777;SDS011;59609;52.430;4.668;2024-02-21T08:08:11;12.73;;;6.10;;
71777;SDS011;59609;52.430;4.668;2024-02-21T08:10:36;16.25;;;6.70;;
71777;SDS011;59609;52.430;4.668;2024-02-21T08:13:01;11.20;;;6.10;;
71777;SDS011;59609;52.430;4.668;2024-02-21T08:15:26;9.63;;;5.67;;
71777;SDS011;59609;52.430;4.668;2024-02-21T08:17:54;14.57;;;6.88;;
71777;SDS011;59609;52.430;4.668;2024-02-21T08:20:23;17.27;;;7.95;;
71777;SDS011;59609;52.430;4.668;2024-02-21T08:22:49;12.47;;;7.23;;
71777;SDS011;59609;52.430;4.668;2024-02-21T08:25:14;17.50;;;7.40;;
71777;SDS011;59609;52.430;4.668;2024-02-21T08:27:39;17.67;;;7.70;;
71777;SDS011;59609;52.430;4.668;2024-02-21T08:30:04;13.80;;;8.20;;
71777;SDS011;59609;52.430;4.668;2024-02-21T08:32:32;16.38;;;7.50;;
71777;SDS011;59609;52.430;4.668;2024-02-21T08:34:57;10.52;;;6.18;;
71777;SDS011;59609;52.430;4.668;2024-02-21T08:37:22;14.77;;;7.73;;
71777;SDS011;59609;52.430;4.668;2024-02-21T08:39:48;15.63;;;8.33;;
71777;SDS011;59609;52.430;4.668;2024-02-21T08:42:13;14.03;;;6.73;;
71777;SDS011;59609;52.430;4.668;2024-02-21T08:44:39;17.77;;;7.83;;
71777;SDS011;59609;52.430;4.668;2024-02-21T08:47:04;16.77;;;8.38;;
71777;SDS011;59609;52.430;4.668;2024-02-21T08:49:31;15.27;;;7.97;;
71777;SDS011;59609;52.430;4.668;2024-02-21T08:51:57;19.55;;;8.68;;
71777;SDS011;59609;52.430;4.668;2024-02-21T08:54:22;19.57;;;9.13;;
71777;SDS011;59609;52.430;4.668;2024-02-21T08:56:47;18.73;;;9.33;;
71777;SDS011;59609;52.430;4.668;2024-02-21T08:59:13;18.27;;;8.35;;
71777;SDS011;59609;52.430;4.668;2024-02-21T09:01:40;16.05;;;7.53;;
71777;SDS011;59609;52.430;4.668;2024-02-21T09:04:05;13.93;;;6.93;;
71777;SDS011;59609;52.430;4.668;2024-02-21T09:06:30;19.52;;;7.80;;
71777;SDS011;59609;52.430;4.668;2024-02-21T09:08:58;15.88;;;7.90;;
71777;SDS011;59609;52.430;4.668;2024-02-21T09:11:23;14.73;;;6.67;;
71777;SDS011;59609;52.430;4.668;2024-02-21T09:13:48;18.47;;;7.80;;
71777;SDS011;59609;52.430;4.668;2024-02-21T09:16:13;14.20;;;6.90;;
71777;SDS011;59609;52.430;4.668;2024-02-21T09:18:39;17.37;;;7.70;;
71777;SDS011;59609;52.430;4.668;2024-02-21T09:21:04;17.08;;;9.05;;
71777;SDS011;59609;52.430;4.668;2024-02-21T09:23:30;16.05;;;7.93;;
71777;SDS011;59609;52.430;4.668;2024-02-21T09:25:56;20.08;;;9.93;;
71777;SDS011;59609;52.430;4.668;2024-02-21T09:28:22;17.70;;;8.77;;
71777;SDS011;59609;52.430;4.668;2024-02-21T09:30:47;18.23;;;8.88;;
71777;SDS011;59609;52.430;4.668;2024-02-21T09:33:12;18.20;;;9.30;;
71777;SDS011;59609;52.430;4.668;2024-02-21T09:35:38;12.07;;;6.90;;
71777;SDS011;59609;52.430;4.668;2024-02-21T09:38:04;16.23;;;8.82;;
71777;SDS011;59609;52.430;4.668;2024-02-21T09:40:29;18.90;;;8.90;;
71777;SDS011;59609;52.430;4.668;2024-02-21T09:43:03;20.83;;;8.93;;
71777;SDS011;59609;52.430;4.668;2024-02-21T09:45:32;13.30;;;7.97;;
71777;SDS011;59609;52.430;4.668;2024-02-21T09:50:23;13.67;;;7.80;;
71777;SDS011;59609;52.430;4.668;2024-02-21T09:52:49;16.17;;;8.35;;
71777;SDS011;59609;52.430;4.668;2024-02-21T09:55:16;18.77;;;10.05;;
71777;SDS011;59609;52.430;4.668;2024-02-21T09:57:43;14.55;;;7.90;;
71777;SDS011;59609;52.430;4.668;2024-02-21T10:00:09;17.75;;;9.68;;
71777;SDS011;59609;52.430;4.668;2024-02-21T10:02:34;19.10;;;9.88;;
71777;SDS011;59609;52.430;4.668;2024-02-21T10:05:00;18.92;;;9.55;;
71777;SDS011;59609;52.430;4.668;2024-02-21T10:07:25;17.60;;;9.73;;
71777;SDS011;59609;52.430;4.668;2024-02-21T10:10:00;21.48;;;10.30;;
71777;SDS011;59609;52.430;4.668;2024-02-21T10:12:26;19.95;;;10.13;;
71777;SDS011;59609;52.430;4.668;2024-02-21T10:14:59;20.27;;;9.57;;
71777;SDS011;59609;52.430;4.668;2024-02-21T10:17:25;14.52;;;7.80;;
71777;SDS011;59609;52.430;4.668;2024-02-21T10:19:50;18.83;;;8.60;;
71777;SDS011;59609;52.430;4.668;2024-02-21T10:22:17;15.25;;;8.68;;
71777;SDS011;59609;52.430;4.668;2024-02-21T10:24:42;15.95;;;9.13;;
71777;SDS011;59609;52.430;4.668;2024-02-21T10:27:08;13.83;;;7.67;;
71777;SDS011;59609;52.430;4.668;2024-02-21T10:29:34;14.15;;;6.55;;
71777;SDS011;59609;52.430;4.668;2024-02-21T10:32:12;13.45;;;7.75;;
71777;SDS011;59609;52.430;4.668;2024-02-21T10:34:38;15.90;;;8.60;;
71777;SDS011;59609;52.430;4.668;2024-02-21T10:37:04;17.05;;;8.00;;
71777;SDS011;59609;52.430;4.668;2024-02-21T10:39:32;16.27;;;8.05;;
71777;SDS011;59609;52.430;4.668;2024-02-21T10:41:59;15.95;;;8.60;;
71777;SDS011;59609;52.430;4.668;2024-02-21T10:44:26;13.10;;;7.15;;
71777;SDS011;59609;52.430;4.668;2024-02-21T10:46:53;13.88;;;6.53;;
71777;SDS011;59609;52.430;4.668;2024-02-21T10:49:22;11.10;;;6.53;;
71777;SDS011;59609;52.430;4.668;2024-02-21T10:51:52;14.85;;;7.75;;
71777;SDS011;59609;52.430;4.668;2024-02-21T10:54:38;11.00;;;6.53;;
71777;SDS011;59609;52.430;4.668;2024-02-21T10:57:04;10.57;;;6.25;;
71777;SDS011;59609;52.430;4.668;2024-02-21T10:59:30;12.35;;;6.45;;
71777;SDS011;59609;52.430;4.668;2024-02-21T11:01:57;12.18;;;6.68;;
71777;SDS011;59609;52.430;4.668;2024-02-21T11:04:22;11.20;;;5.37;;
71777;SDS011;59609;52.430;4.668;2024-02-21T11:06:47;10.25;;;6.10;;
71777;SDS011;59609;52.430;4.668;2024-02-21T11:09:13;14.93;;;6.90;;
71777;SDS011;59609;52.430;4.668;2024-02-21T11:11:39;11.20;;;7.10;;
71777;SDS011;59609;52.430;4.668;2024-02-21T11:14:08;13.05;;;7.35;;
71777;SDS011;59609;52.430;4.668;2024-02-21T11:16:38;13.52;;;7.40;;
71777;SDS011;59609;52.430;4.668;2024-02-21T11:19:05;10.98;;;6.90;;
71777;SDS011;59609;52.430;4.668;2024-02-21T11:21:36;11.45;;;7.45;;
71777;SDS011;59609;52.430;4.668;2024-02-21T11:24:02;15.60;;;7.45;;
71777;SDS011;59609;52.430;4.668;2024-02-21T11:26:27;15.63;;;7.57;;
71777;SDS011;59609;52.430;4.668;2024-02-21T11:29:02;10.07;;;6.97;;
71777;SDS011;59609;52.430;4.668;2024-02-21T11:31:40;10.85;;;6.40;;
71777;SDS011;59609;52.430;4.668;2024-02-21T11:34:08;17.70;;;8.18;;
71777;SDS011;59609;52.430;4.668;2024-02-21T11:36:33;15.35;;;8.55;;
71777;SDS011;59609;52.430;4.668;2024-02-21T11:39:05;13.17;;;6.97;;
71777;SDS011;59609;52.430;4.668;2024-02-21T11:41:31;14.18;;;7.30;;
71777;SDS011;59609;52.430;4.668;2024-02-21T11:43:56;12.20;;;7.70;;
71777;SDS011;59609;52.430;4.668;2024-02-21T11:46:23;10.15;;;6.38;;
71777;SDS011;59609;52.430;4.668;2024-02-21T11:48:48;12.20;;;7.50;;
71777;SDS011;59609;52.430;4.668;2024-02-21T11:51:22;11.32;;;7.65;;
71777;SDS011;59609;52.430;4.668;2024-02-21T11:53:50;11.45;;;6.70;;
71777;SDS011;59609;52.430;4.668;2024-02-21T11:56:15;13.20;;;7.18;;
71777;SDS011;59609;52.430;4.668;2024-02-21T11:58:41;11.13;;;6.33;;
71777;SDS011;59609;52.430;4.668;2024-02-21T12:01:07;13.00;;;6.80;;
71777;SDS011;59609;52.430;4.668;2024-02-21T12:03:33;12.02;;;7.18;;
71777;SDS011;59609;52.430;4.668;2024-02-21T12:06:00;10.18;;;6.40;;
71777;SDS011;59609;52.430;4.668;2024-02-21T12:08:26;12.85;;;6.68;;
71777;SDS011;59609;52.430;4.668;2024-02-21T12:10:53;13.00;;;7.50;;
71777;SDS011;59609;52.430;4.668;2024-02-21T12:13:18;11.03;;;6.57;;
71777;SDS011;59609;52.430;4.668;2024-02-21T12:15:47;11.10;;;6.55;;
71777;SDS011;59609;52.430;4.668;2024-02-21T12:18:14;13.00;;;7.10;;
71777;SDS011;59609;52.430;4.668;2024-02-21T12:20:40;12.23;;;6.38;;
71777;SDS011;59609;52.430;4.668;2024-02-21T12:23:09;12.05;;;6.68;;
71777;SDS011;59609;52.430;4.668;2024-02-21T12:25:34;11.40;;;6.68;;
71777;SDS011;59609;52.430;4.668;2024-02-21T12:27:59;12.47;;;7.10;;
71777;SDS011;59609;52.430;4.668;2024-02-21T12:30:25;10.52;;;6.85;;
71777;SDS011;59609;52.430;4.668;2024-02-21T12:32:51;11.10;;;6.85;;
71777;SDS011;59609;52.430;4.668;2024-02-21T12:35:16;13.00;;;7.57;;
71777;SDS011;59609;52.430;4.668;2024-02-21T12:37:42;15.38;;;6.75;;
71777;SDS011;59609;52.430;4.668;2024-02-21T12:40:08;12.33;;;7.03;;
71777;SDS011;59609;52.430;4.668;2024-02-21T12:42:33;10.65;;;7.20;;
71777;SDS011;59609;52.430;4.668;2024-02-21T12:44:59;12.25;;;7.00;;
71777;SDS011;59609;52.430;4.668;2024-02-21T12:47:24;10.52;;;6.20;;
71777;SDS011;59609;52.430;4.668;2024-02-21T12:49:51;9.13;;;5.70;;
71777;SDS011;59609;52.430;4.668;2024-02-21T12:52:16;9.27;;;6.40;;
71777;SDS011;59609;52.430;4.668;2024-02-21T12:54:42;12.37;;;6.90;;
71777;SDS011;59609;52.430;4.668;2024-02-21T12:57:12;12.77;;;5.82;;
71777;SDS011;59609;52.430;4.668;2024-02-21T12:59:38;10.30;;;6.00;;
71777;SDS011;59609;52.430;4.668;2024-02-21T13:02:03;10.38;;;5.72;;
71777;SDS011;59609;52.430;4.668;2024-02-21T13:04:28;12.17;;;6.33;;
71777;SDS011;59609;52.430;4.668;2024-02-21T13:06:53;8.70;;;5.27;;
71777;SDS011;59609;52.430;4.668;2024-02-21T13:09:20;11.57;;;6.00;;
71777;SDS011;59609;52.430;4.668;2024-02-21T13:11:45;7.77;;;5.37;;
71777;SDS011;59609;52.430;4.668;2024-02-21T13:14:11;8.50;;;4.70;;
71777;SDS011;59609;52.430;4.668;2024-02-21T13:16:36;8.80;;;5.70;;
71777;SDS011;59609;52.430;4.668;2024-02-21T13:19:07;8.02;;;5.07;;
71777;SDS011;59609;52.430;4.668;2024-02-21T13:21:38;6.15;;;4.32;;
71777;SDS011;59609;52.430;4.668;2024-02-21T13:24:04;8.37;;;5.37;;
71777;SDS011;59609;52.430;4.668;2024-02-21T13:26:29;8.25;;;4.95;;
71777;SDS011;59609;52.430;4.668;2024-02-21T13:28:54;9.23;;;4.67;;
71777;SDS011;59609;52.430;4.668;2024-02-21T13:31:20;10.18;;;5.53;;
71777;SDS011;59609;52.430;4.668;2024-02-21T13:33:45;9.05;;;5.00;;
71777;SDS011;59609;52.430;4.668;2024-02-21T13:36:11;5.97;;;4.50;;
71777;SDS011;59609;52.430;4.668;2024-02-21T13:38:37;7.00;;;4.65;;
71777;SDS011;59609;52.430;4.668;2024-02-21T13:41:03;6.50;;;4.55;;
71777;SDS011;59609;52.430;4.668;2024-02-21T13:43:29;9.38;;;5.43;;
71777;SDS011;59609;52.430;4.668;2024-02-21T13:45:56;8.07;;;5.80;;
71777;SDS011;59609;52.430;4.668;2024-02-21T13:48:23;9.45;;;5.88;;
71777;SDS011;59609;52.430;4.668;2024-02-21T13:50:49;8.48;;;5.45;;
71777;SDS011;59609;52.430;4.668;2024-02-21T13:53:15;12.68;;;7.07;;
71777;SDS011;59609;52.430;4.668;2024-02-21T13:55:43;9.43;;;5.88;;
71777;SDS011;59609;52.430;4.668;2024-02-21T13:58:08;10.32;;;6.03;;
71777;SDS011;59609;52.430;4.668;2024-02-21T14:00:34;12.88;;;6.68;;
71777;SDS011;59609;52.430;4.668;2024-02-21T14:03:01;9.48;;;6.80;;
71777;SDS011;59609;52.430;4.668;2024-02-21T14:05:26;13.97;;;6.40;;
71777;SDS011;59609;52.430;4.668;2024-02-21T14:07:54;12.70;;;7.07;;
71777;SDS011;59609;52.430;4.668;2024-02-21T14:12:48;11.15;;;7.13;;
71777;SDS011;59609;52.430;4.668;2024-02-21T14:15:13;11.10;;;6.60;;
71777;SDS011;59609;52.430;4.668;2024-02-21T14:17:39;15.00;;;7.18;;
71777;SDS011;59609;52.430;4.668;2024-02-21T14:20:04;9.85;;;5.95;;
71777;SDS011;59609;52.430;4.668;2024-02-21T14:22:30;9.77;;;6.07;;
71777;SDS011;59609;52.430;4.668;2024-02-21T14:24:55;14.82;;;7.38;;
71777;SDS011;59609;52.430;4.668;2024-02-21T14:27:21;10.70;;;7.25;;
71777;SDS011;59609;52.430;4.668;2024-02-21T14:29:47;14.40;;;6.07;;
71777;SDS011;59609;52.430;4.668;2024-02-21T14:32:12;12.50;;;7.40;;
71777;SDS011;59609;52.430;4.668;2024-02-21T14:34:37;14.50;;;6.75;;